sensor_id;sensor_type;location;lat;lon;timestamp;temperature;humidity
8662;DHT22;29684;47.722;9.388;2023-02-28T00:02:18;-0.90;99.90
8662;DHT22;29684;47.722;9.388;2023-02-28T00:05:02;-0.90;99.90
8662;DHT22;29684;47.722;9.388;2023-02-28T00:07:48;-0.60;99.90
8662;DHT22;29684;47.722;9.388;2023-02-28T00:10:33;-0.80;99.90
8662;DHT22;29684;47.722;9.388;2023-02-28T00:13:17;-0.80;99.90
8662;DHT22;29684;47.722;9.388;2023-02-28T00:16:04;-0.80;99.90
8662;DHT22;29684;47.722;9.388;2023-02-28T00:18:49;-1.00;99.90
8662;DHT22;29684;47.722;9.388;2023-02-28T00:21:33;-0.80;99.90
8662;DHT22;29684;47.722;9.388;2023-02-28T00:24:17;-0.90;99.90
8662;DHT22;29684;47.722;9.388;2023-02-28T00:27:02;-0.80;99.90
8662;DHT22;29684;47.722;9.388;2023-02-28T00:29:47;-0.90;99.90
8662;DHT22;29684;47.722;9.388;2023-02-28T00:32:31;-0.80;99.90
8662;DHT22;29684;47.722;9.388;2023-02-28T00:35:16;-1.60;99.90
8662;DHT22;29684;47.722;9.388;2023-02-28T00:38:00;-1.00;99.90
8662;DHT22;29684;47.722;9.388;2023-02-28T00:40:44;-0.90;99.90
8662;DHT22;29684;47.722;9.388;2023-02-28T00:43:28;-0.80;99.90
8662;DHT22;29684;47.722;9.388;2023-02-28T00:46:12;-0.90;99.90
8662;DHT22;29684;47.722;9.388;2023-02-28T00:48:57;-0.90;99.90
8662;DHT22;29684;47.722;9.388;2023-02-28T00:51:41;-0.90;99.90
8662;DHT22;29684;47.722;9.388;2023-02-28T00:54:25;-0.90;99.90
8662;DHT22;29684;47.722;9.388;2023-02-28T00:57:09;-1.10;99.90
8662;DHT22;29684;47.722;9.388;2023-02-28T00:59:53;-0.90;99.90
8662;DHT22;29684;47.722;9.388;2023-02-28T01:02:40;-0.90;99.90
8662;DHT22;29684;47.722;9.388;2023-02-28T01:05:24;-1.00;99.90
8662;DHT22;29684;47.722;9.388;2023-02-28T01:08:08;-1.00;99.90
8662;DHT22;29684;47.722;9.388;2023-02-28T01:10:53;-0.80;99.90
8662;DHT22;29684;47.722;9.388;2023-02-28T01:13:37;-1.00;99.90
8662;DHT22;29684;47.722;9.388;2023-02-28T01:16:22;-0.90;99.90
8662;DHT22;29684;47.722;9.388;2023-02-28T01:19:06;-1.00;99.90
8662;DHT22;29684;47.722;9.388;2023-02-28T01:21:50;-0.90;99.90
8662;DHT22;29684;47.722;9.388;2023-02-28T01:24:34;-1.00;99.90
8662;DHT22;29684;47.722;9.388;2023-02-28T01:27:19;-0.80;99.90
8662;DHT22;29684;47.722;9.388;2023-02-28T01:30:03;-1.00;99.90
8662;DHT22;29684;47.722;9.388;2023-02-28T01:32:47;-1.20;99.90
8662;DHT22;29684;47.722;9.388;2023-02-28T01:35:35;-1.00;99.90
8662;DHT22;29684;47.722;9.388;2023-02-28T01:38:19;-1.10;99.90
8662;DHT22;29684;47.722;9.388;2023-02-28T01:41:04;-0.90;99.90
8662;DHT22;29684;47.722;9.388;2023-02-28T01:46:35;-1.10;99.90
8662;DHT22;29684;47.722;9.388;2023-02-28T01:49:19;-1.30;99.90
8662;DHT22;29684;47.722;9.388;2023-02-28T01:52:04;-1.10;99.90
8662;DHT22;29684;47.722;9.388;2023-02-28T01:54:52;-1.10;99.90
8662;DHT22;29684;47.722;9.388;2023-02-28T01:57:40;-1.10;99.90
8662;DHT22;29684;47.722;9.388;2023-02-28T02:00:28;-1.10;99.90
8662;DHT22;29684;47.722;9.388;2023-02-28T02:03:15;-1.00;99.90
8662;DHT22;29684;47.722;9.388;2023-02-28T02:06:02;-1.10;99.90
8662;DHT22;29684;47.722;9.388;2023-02-28T02:08:47;-1.10;99.90
8662;DHT22;29684;47.722;9.388;2023-02-28T02:11:32;-1.10;99.90
8662;DHT22;29684;47.722;9.388;2023-02-28T02:17:33;-1.20;99.90
8662;DHT22;29684;47.722;9.388;2023-02-28T02:20:32;-1.20;99.90
8662;DHT22;29684;47.722;9.388;2023-02-28T02:38:51;-1.10;99.90
8662;DHT22;29684;47.722;9.388;2023-02-28T02:41:45;-1.10;99.90
8662;DHT22;29684;47.722;9.388;2023-02-28T02:44:41;-1.20;99.90
8662;DHT22;29684;47.722;9.388;2023-02-28T02:47:30;-1.20;99.90
8662;DHT22;29684;47.722;9.388;2023-02-28T02:50:22;-1.00;99.90
8662;DHT22;29684;47.722;9.388;2023-02-28T02:53:09;-1.10;99.90
8662;DHT22;29684;47.722;9.388;2023-02-28T02:55:55;-1.10;99.90
8662;DHT22;29684;47.722;9.388;2023-02-28T02:58:42;-1.10;99.90
8662;DHT22;29684;47.722;9.388;2023-02-28T03:01:28;-0.90;99.90
8662;DHT22;29684;47.722;9.388;2023-02-28T03:04:18;-1.00;99.90
8662;DHT22;29684;47.722;9.388;2023-02-28T03:07:02;-0.90;99.90
8662;DHT22;29684;47.722;9.388;2023-02-28T03:09:51;-1.00;99.90
8662;DHT22;29684;47.722;9.388;2023-02-28T03:12:45;-1.00;99.90
8662;DHT22;29684;47.722;9.388;2023-02-28T03:15:47;-1.00;99.90
8662;DHT22;29684;47.722;9.388;2023-02-28T03:19:11;-1.10;99.90
8662;DHT22;29684;47.722;9.388;2023-02-28T03:33:49;-1.10;99.90
8662;DHT22;29684;47.722;9.388;2023-02-28T03:36:42;-1.10;99.90
8662;DHT22;29684;47.722;9.388;2023-02-28T03:39:36;-1.20;99.90
8662;DHT22;29684;47.722;9.388;2023-02-28T03:42:24;-1.10;99.90
8662;DHT22;29684;47.722;9.388;2023-02-28T03:45:30;-1.10;99.90
8662;DHT22;29684;47.722;9.388;2023-02-28T03:48:23;-1.10;99.90
8662;DHT22;29684;47.722;9.388;2023-02-28T03:51:15;-1.10;99.90
8662;DHT22;29684;47.722;9.388;2023-02-28T03:54:08;-1.10;99.90
8662;DHT22;29684;47.722;9.388;2023-02-28T04:00:27;-1.30;99.90
8662;DHT22;29684;47.722;9.388;2023-02-28T04:03:13;-1.20;99.90
8662;DHT22;29684;47.722;9.388;2023-02-28T04:05:57;-1.10;99.90
8662;DHT22;29684;47.722;9.388;2023-02-28T04:08:42;-1.10;99.90
8662;DHT22;29684;47.722;9.388;2023-02-28T04:11:34;-1.30;99.90
8662;DHT22;29684;47.722;9.388;2023-02-28T04:14:19;-1.10;99.90
8662;DHT22;29684;47.722;9.388;2023-02-28T04:17:03;-1.10;99.90
8662;DHT22;29684;47.722;9.388;2023-02-28T04:19:48;-1.30;99.90
8662;DHT22;29684;47.722;9.388;2023-02-28T04:22:32;-1.20;99.90
8662;DHT22;29684;47.722;9.388;2023-02-28T04:25:16;-0.60;99.90
8662;DHT22;29684;47.722;9.388;2023-02-28T04:28:00;-1.30;99.90
8662;DHT22;29684;47.722;9.388;2023-02-28T04:30:44;-1.10;99.90
8662;DHT22;29684;47.722;9.388;2023-02-28T04:33:30;-1.10;99.90
8662;DHT22;29684;47.722;9.388;2023-02-28T04:36:14;-1.20;99.90
8662;DHT22;29684;47.722;9.388;2023-02-28T04:39:01;-1.10;99.90
8662;DHT22;29684;47.722;9.388;2023-02-28T04:41:46;-1.10;99.90
8662;DHT22;29684;47.722;9.388;2023-02-28T04:44:30;-1.10;99.90
8662;DHT22;29684;47.722;9.388;2023-02-28T04:47:15;-1.10;99.90
8662;DHT22;29684;47.722;9.388;2023-02-28T04:50:00;-1.40;99.90
8662;DHT22;29684;47.722;9.388;2023-02-28T04:52:44;-1.20;99.90
8662;DHT22;29684;47.722;9.388;2023-02-28T04:55:28;-1.20;99.90
8662;DHT22;29684;47.722;9.388;2023-02-28T04:58:15;-1.20;99.90
8662;DHT22;29684;47.722;9.388;2023-02-28T05:01:27;-0.90;99.90
8662;DHT22;29684;47.722;9.388;2023-02-28T05:04:12;-1.20;99.90
8662;DHT22;29684;47.722;9.388;2023-02-28T05:06:56;-1.20;99.90
8662;DHT22;29684;47.722;9.388;2023-02-28T05:09:40;-1.20;99.90
8662;DHT22;29684;47.722;9.388;2023-02-28T05:12:24;-1.40;99.90
8662;DHT22;29684;47.722;9.388;2023-02-28T05:15:13;-1.30;99.90
8662;DHT22;29684;47.722;9.388;2023-02-28T05:17:58;-1.20;99.90
8662;DHT22;29684;47.722;9.388;2023-02-28T05:20:42;-1.20;99.90
8662;DHT22;29684;47.722;9.388;2023-02-28T05:23:26;-1.30;99.90
8662;DHT22;29684;47.722;9.388;2023-02-28T05:26:11;-1.20;99.90
8662;DHT22;29684;47.722;9.388;2023-02-28T05:28:55;-1.30;99.90
8662;DHT22;29684;47.722;9.388;2023-02-28T05:31:40;-1.30;99.90
8662;DHT22;29684;47.722;9.388;2023-02-28T05:34:24;-1.40;99.90
8662;DHT22;29684;47.722;9.388;2023-02-28T05:37:12;-1.20;99.90
8662;DHT22;29684;47.722;9.388;2023-02-28T05:39:57;-1.30;99.90
8662;DHT22;29684;47.722;9.388;2023-02-28T05:42:42;-1.40;99.90
8662;DHT22;29684;47.722;9.388;2023-02-28T05:45:26;-1.40;99.90
8662;DHT22;29684;47.722;9.388;2023-02-28T05:48:10;-1.50;99.90
8662;DHT22;29684;47.722;9.388;2023-02-28T05:50:54;-1.40;99.90
8662;DHT22;29684;47.722;9.388;2023-02-28T05:53:38;-1.40;99.90
8662;DHT22;29684;47.722;9.388;2023-02-28T05:56:23;-1.40;99.90
8662;DHT22;29684;47.722;9.388;2023-02-28T05:59:07;-1.40;99.90
8662;DHT22;29684;47.722;9.388;2023-02-28T06:01:51;-1.60;99.90
8662;DHT22;29684;47.722;9.388;2023-02-28T06:04:36;-1.60;99.90
8662;DHT22;29684;47.722;9.388;2023-02-28T06:07:21;-1.60;99.90
8662;DHT22;29684;47.722;9.388;2023-02-28T06:10:06;-1.60;99.90
8662;DHT22;29684;47.722;9.388;2023-02-28T06:12:51;-1.60;99.90
8662;DHT22;29684;47.722;9.388;2023-02-28T06:15:35;-1.60;99.90
8662;DHT22;29684;47.722;9.388;2023-02-28T06:18:19;-1.60;99.90
8662;DHT22;29684;47.722;9.388;2023-02-28T06:21:03;-1.70;99.90
8662;DHT22;29684;47.722;9.388;2023-02-28T06:23:48;-1.60;99.90
8662;DHT22;29684;47.722;9.388;2023-02-28T06:26:32;-1.60;99.90
8662;DHT22;29684;47.722;9.388;2023-02-28T06:29:16;-1.40;99.90
8662;DHT22;29684;47.722;9.388;2023-02-28T06:32:02;-1.50;99.90
8662;DHT22;29684;47.722;9.388;2023-02-28T06:34:47;-0.80;99.90
8662;DHT22;29684;47.722;9.388;2023-02-28T06:37:32;-1.50;99.90
8662;DHT22;29684;47.722;9.388;2023-02-28T06:40:16;-1.30;99.90
8662;DHT22;29684;47.722;9.388;2023-02-28T06:43:01;-1.50;99.90
8662;DHT22;29684;47.722;9.388;2023-02-28T06:45:45;-1.40;99.90
8662;DHT22;29684;47.722;9.388;2023-02-28T06:48:30;-1.60;99.90
8662;DHT22;29684;47.722;9.388;2023-02-28T06:51:17;-1.40;99.90
8662;DHT22;29684;47.722;9.388;2023-02-28T06:54:03;-1.40;99.90
8662;DHT22;29684;47.722;9.388;2023-02-28T06:56:47;-1.30;99.90
8662;DHT22;29684;47.722;9.388;2023-02-28T06:59:33;-0.70;99.90
8662;DHT22;29684;47.722;9.388;2023-02-28T07:02:19;0.00;99.90
8662;DHT22;29684;47.722;9.388;2023-02-28T07:05:06;-0.60;99.90
8662;DHT22;29684;47.722;9.388;2023-02-28T07:07:50;-0.90;99.90
8662;DHT22;29684;47.722;9.388;2023-02-28T07:10:39;-0.80;99.90
8662;DHT22;29684;47.722;9.388;2023-02-28T07:13:24;-0.80;99.90
8662;DHT22;29684;47.722;9.388;2023-02-28T07:16:10;-0.80;99.90
8662;DHT22;29684;47.722;9.388;2023-02-28T07:18:55;-0.80;99.90
8662;DHT22;29684;47.722;9.388;2023-02-28T07:21:39;-0.90;99.90
8662;DHT22;29684;47.722;9.388;2023-02-28T07:24:23;-0.20;99.90
8662;DHT22;29684;47.722;9.388;2023-02-28T07:27:10;-0.90;99.90
8662;DHT22;29684;47.722;9.388;2023-02-28T07:29:54;-0.90;99.90
8662;DHT22;29684;47.722;9.388;2023-02-28T07:32:39;-0.90;99.90
8662;DHT22;29684;47.722;9.388;2023-02-28T07:35:23;-0.90;99.90
8662;DHT22;29684;47.722;9.388;2023-02-28T07:38:08;-0.90;99.90
8662;DHT22;29684;47.722;9.388;2023-02-28T07:40:53;-0.70;99.90
8662;DHT22;29684;47.722;9.388;2023-02-28T07:43:37;-0.90;99.90
8662;DHT22;29684;47.722;9.388;2023-02-28T07:46:22;-0.80;99.90
8662;DHT22;29684;47.722;9.388;2023-02-28T07:49:06;-0.80;99.90
8662;DHT22;29684;47.722;9.388;2023-02-28T07:51:51;-0.70;99.90
8662;DHT22;29684;47.722;9.388;2023-02-28T07:54:35;-0.60;99.90
8662;DHT22;29684;47.722;9.388;2023-02-28T07:57:19;-0.60;99.90
8662;DHT22;29684;47.722;9.388;2023-02-28T08:00:05;0.50;99.90
8662;DHT22;29684;47.722;9.388;2023-02-28T08:02:50;-0.50;99.90
8662;DHT22;29684;47.722;9.388;2023-02-28T08:05:41;-0.50;99.90
8662;DHT22;29684;47.722;9.388;2023-02-28T08:08:25;0.10;99.90
8662;DHT22;29684;47.722;9.388;2023-02-28T08:11:14;0.80;99.90
8662;DHT22;29684;47.722;9.388;2023-02-28T08:13:58;0.60;99.90
8662;DHT22;29684;47.722;9.388;2023-02-28T08:16:42;0.10;99.90
8662;DHT22;29684;47.722;9.388;2023-02-28T08:19:27;-0.10;99.90
8662;DHT22;29684;47.722;9.388;2023-02-28T08:22:12;-0.30;99.90
8662;DHT22;29684;47.722;9.388;2023-02-28T08:24:56;-0.20;99.90
8662;DHT22;29684;47.722;9.388;2023-02-28T08:27:40;0.10;99.90
8662;DHT22;29684;47.722;9.388;2023-02-28T08:30:24;0.10;99.90
8662;DHT22;29684;47.722;9.388;2023-02-28T08:33:08;0.10;99.90
8662;DHT22;29684;47.722;9.388;2023-02-28T08:35:54;-0.10;99.90
8662;DHT22;29684;47.722;9.388;2023-02-28T08:38:38;0.10;99.90
8662;DHT22;29684;47.722;9.388;2023-02-28T08:41:23;0.00;99.90
8662;DHT22;29684;47.722;9.388;2023-02-28T08:44:07;-0.10;99.90
8662;DHT22;29684;47.722;9.388;2023-02-28T08:46:51;-0.10;99.90
8662;DHT22;29684;47.722;9.388;2023-02-28T08:49:36;-0.10;99.90
8662;DHT22;29684;47.722;9.388;2023-02-28T08:52:21;0.10;99.90
8662;DHT22;29684;47.722;9.388;2023-02-28T08:55:06;0.00;99.90
8662;DHT22;29684;47.722;9.388;2023-02-28T08:57:50;0.20;99.90
8662;DHT22;29684;47.722;9.388;2023-02-28T09:00:35;0.10;99.90
8662;DHT22;29684;47.722;9.388;2023-02-28T09:03:21;0.00;99.90
8662;DHT22;29684;47.722;9.388;2023-02-28T09:06:06;0.20;99.90
8662;DHT22;29684;47.722;9.388;2023-02-28T09:08:50;0.10;99.90
8662;DHT22;29684;47.722;9.388;2023-02-28T09:11:35;0.40;99.90
8662;DHT22;29684;47.722;9.388;2023-02-28T09:14:20;0.20;99.90
8662;DHT22;29684;47.722;9.388;2023-02-28T09:17:04;0.40;99.90
8662;DHT22;29684;47.722;9.388;2023-02-28T09:19:48;0.50;99.90
8662;DHT22;29684;47.722;9.388;2023-02-28T09:22:33;0.40;99.90
8662;DHT22;29684;47.722;9.388;2023-02-28T09:25:17;0.60;99.90
8662;DHT22;29684;47.722;9.388;2023-02-28T09:28:01;0.50;99.90
8662;DHT22;29684;47.722;9.388;2023-02-28T09:30:48;0.60;99.90
8662;DHT22;29684;47.722;9.388;2023-02-28T09:33:33;0.60;99.90
8662;DHT22;29684;47.722;9.388;2023-02-28T09:36:18;1.10;99.90
8662;DHT22;29684;47.722;9.388;2023-02-28T09:39:02;0.60;99.90
8662;DHT22;29684;47.722;9.388;2023-02-28T09:41:51;0.10;99.90
8662;DHT22;29684;47.722;9.388;2023-02-28T09:44:42;0.90;99.90
8662;DHT22;29684;47.722;9.388;2023-02-28T09:47:34;0.70;99.90
8662;DHT22;29684;47.722;9.388;2023-02-28T09:53:26;0.80;99.90
8662;DHT22;29684;47.722;9.388;2023-02-28T09:56:18;0.60;99.90
8662;DHT22;29684;47.722;9.388;2023-02-28T09:59:18;0.90;99.90
8662;DHT22;29684;47.722;9.388;2023-02-28T10:02:19;1.00;99.90
8662;DHT22;29684;47.722;9.388;2023-02-28T10:05:12;-0.60;99.90
8662;DHT22;29684;47.722;9.388;2023-02-28T10:08:06;0.80;99.90
8662;DHT22;29684;47.722;9.388;2023-02-28T10:10:57;1.10;99.90
8662;DHT22;29684;47.722;9.388;2023-02-28T10:16:42;1.00;99.90
8662;DHT22;29684;47.722;9.388;2023-02-28T10:19:33;1.10;99.90
8662;DHT22;29684;47.722;9.388;2023-02-28T10:22:20;1.00;99.90
8662;DHT22;29684;47.722;9.388;2023-02-28T10:25:22;1.30;99.90
8662;DHT22;29684;47.722;9.388;2023-02-28T10:28:11;0.80;99.90
8662;DHT22;29684;47.722;9.388;2023-02-28T10:30:56;1.30;99.90
8662;DHT22;29684;47.722;9.388;2023-02-28T10:33:42;1.80;99.90
8662;DHT22;29684;47.722;9.388;2023-02-28T10:36:26;1.00;99.90
8662;DHT22;29684;47.722;9.388;2023-02-28T10:39:38;1.30;99.90
8662;DHT22;29684;47.722;9.388;2023-02-28T10:45:16;1.30;99.90
8662;DHT22;29684;47.722;9.388;2023-02-28T10:50:58;1.60;99.90
8662;DHT22;29684;47.722;9.388;2023-02-28T10:56:28;1.90;99.90
8662;DHT22;29684;47.722;9.388;2023-02-28T10:59:29;1.80;99.90
8662;DHT22;29684;47.722;9.388;2023-02-28T11:02:35;1.90;99.90
8662;DHT22;29684;47.722;9.388;2023-02-28T11:05:33;1.80;99.90
8662;DHT22;29684;47.722;9.388;2023-02-28T11:08:19;2.10;99.90
8662;DHT22;29684;47.722;9.388;2023-02-28T11:11:05;2.00;99.90
8662;DHT22;29684;47.722;9.388;2023-02-28T11:13:53;2.00;99.90
8662;DHT22;29684;47.722;9.388;2023-02-28T11:16:38;1.80;99.90
8662;DHT22;29684;47.722;9.388;2023-02-28T11:19:29;2.10;99.90
8662;DHT22;29684;47.722;9.388;2023-02-28T11:22:21;2.00;99.90
8662;DHT22;29684;47.722;9.388;2023-02-28T11:25:30;1.60;99.90
8662;DHT22;29684;47.722;9.388;2023-02-28T11:28:34;1.90;99.90
8662;DHT22;29684;47.722;9.388;2023-02-28T11:31:19;1.80;99.90
8662;DHT22;29684;47.722;9.388;2023-02-28T11:34:24;1.90;99.90
8662;DHT22;29684;47.722;9.388;2023-02-28T11:37:16;1.80;99.90
8662;DHT22;29684;47.722;9.388;2023-02-28T11:40:02;0.60;99.90
8662;DHT22;29684;47.722;9.388;2023-02-28T11:43:29;2.10;99.90
8662;DHT22;29684;47.722;9.388;2023-02-28T11:55:19;2.20;99.90
8662;DHT22;29684;47.722;9.388;2023-02-28T12:04:17;2.60;99.90
8662;DHT22;29684;47.722;9.388;2023-02-28T12:07:20;2.50;99.90
8662;DHT22;29684;47.722;9.388;2023-02-28T12:20:10;2.50;99.90
8662;DHT22;29684;47.722;9.388;2023-02-28T12:22:36;2.60;99.90
8662;DHT22;29684;47.722;9.388;2023-02-28T12:28:31;3.20;99.90
8662;DHT22;29684;47.722;9.388;2023-02-28T12:31:19;3.40;99.90
8662;DHT22;29684;47.722;9.388;2023-02-28T12:34:28;2.90;99.90
8662;DHT22;29684;47.722;9.388;2023-02-28T12:37:20;2.40;99.90
8662;DHT22;29684;47.722;9.388;2023-02-28T12:40:13;2.50;99.90
8662;DHT22;29684;47.722;9.388;2023-02-28T12:43:04;2.80;99.90
8662;DHT22;29684;47.722;9.388;2023-02-28T12:45:59;2.70;99.90
8662;DHT22;29684;47.722;9.388;2023-02-28T12:48:48;2.60;99.90
8662;DHT22;29684;47.722;9.388;2023-02-28T12:51:35;2.50;99.90
8662;DHT22;29684;47.722;9.388;2023-02-28T12:54:29;2.60;99.90
8662;DHT22;29684;47.722;9.388;2023-02-28T13:10:18;3.90;99.90
8662;DHT22;29684;47.722;9.388;2023-02-28T13:13:03;3.70;99.90
8662;DHT22;29684;47.722;9.388;2023-02-28T13:18:46;3.80;99.90
8662;DHT22;29684;47.722;9.388;2023-02-28T13:21:32;3.70;99.90
8662;DHT22;29684;47.722;9.388;2023-02-28T13:24:42;3.20;99.90
8662;DHT22;29684;47.722;9.388;2023-02-28T13:27:41;3.10;99.90
8662;DHT22;29684;47.722;9.388;2023-02-28T13:36:31;2.90;99.90
8662;DHT22;29684;47.722;9.388;2023-02-28T13:48:02;3.40;99.90
8662;DHT22;29684;47.722;9.388;2023-02-28T13:50:46;4.00;99.90
8662;DHT22;29684;47.722;9.388;2023-02-28T13:56:41;3.50;99.90
8662;DHT22;29684;47.722;9.388;2023-02-28T14:05:22;3.10;99.90
8662;DHT22;29684;47.722;9.388;2023-02-28T14:08:16;3.00;99.90
8662;DHT22;29684;47.722;9.388;2023-02-28T14:11:05;2.80;99.90
8662;DHT22;29684;47.722;9.388;2023-02-28T14:13:49;2.70;99.90
8662;DHT22;29684;47.722;9.388;2023-02-28T14:16:44;2.70;99.90
8662;DHT22;29684;47.722;9.388;2023-02-28T14:19:31;2.90;99.90
8662;DHT22;29684;47.722;9.388;2023-02-28T14:25:15;2.70;99.90
8662;DHT22;29684;47.722;9.388;2023-02-28T14:28:27;2.10;99.90
8662;DHT22;29684;47.722;9.388;2023-02-28T14:31:29;2.20;99.90
8662;DHT22;29684;47.722;9.388;2023-02-28T14:37:27;2.00;99.90
8662;DHT22;29684;47.722;9.388;2023-02-28T14:40:19;1.70;99.90
8662;DHT22;29684;47.722;9.388;2023-02-28T14:43:16;2.10;99.90
8662;DHT22;29684;47.722;9.388;2023-02-28T14:46:04;2.30;99.90
8662;DHT22;29684;47.722;9.388;2023-02-28T14:48:50;2.20;99.90
8662;DHT22;29684;47.722;9.388;2023-02-28T14:51:35;2.40;99.90
8662;DHT22;29684;47.722;9.388;2023-02-28T14:54:21;2.40;99.90
8662;DHT22;29684;47.722;9.388;2023-02-28T14:57:33;2.30;99.90
8662;DHT22;29684;47.722;9.388;2023-02-28T15:00:25;1.90;99.90
8662;DHT22;29684;47.722;9.388;2023-02-28T15:03:27;2.20;99.90
8662;DHT22;29684;47.722;9.388;2023-02-28T15:06:15;2.40;99.90
8662;DHT22;29684;47.722;9.388;2023-02-28T15:09:15;2.70;99.90
8662;DHT22;29684;47.722;9.388;2023-02-28T15:11:59;2.40;99.90
8662;DHT22;29684;47.722;9.388;2023-02-28T15:14:45;2.10;99.90
8662;DHT22;29684;47.722;9.388;2023-02-28T15:17:30;2.30;99.90
8662;DHT22;29684;47.722;9.388;2023-02-28T15:20:16;2.80;99.90
8662;DHT22;29684;47.722;9.388;2023-02-28T15:23:02;2.80;99.90
8662;DHT22;29684;47.722;9.388;2023-02-28T15:25:46;2.20;99.90
8662;DHT22;29684;47.722;9.388;2023-02-28T15:28:31;2.30;99.90
8662;DHT22;29684;47.722;9.388;2023-02-28T15:31:33;2.00;99.90
8662;DHT22;29684;47.722;9.388;2023-02-28T15:40:29;4.80;99.90
8662;DHT22;29684;47.722;9.388;2023-02-28T15:43:22;5.40;99.90
8662;DHT22;29684;47.722;9.388;2023-02-28T15:46:09;5.80;99.90
8662;DHT22;29684;47.722;9.388;2023-02-28T15:48:55;5.10;99.90
8662;DHT22;29684;47.722;9.388;2023-02-28T15:51:40;4.30;99.90
8662;DHT22;29684;47.722;9.388;2023-02-28T15:54:28;3.50;99.90
8662;DHT22;29684;47.722;9.388;2023-02-28T15:57:20;3.30;99.90
8662;DHT22;29684;47.722;9.388;2023-02-28T16:00:06;2.80;99.90
8662;DHT22;29684;47.722;9.388;2023-02-28T16:02:55;2.50;99.90
8662;DHT22;29684;47.722;9.388;2023-02-28T16:05:39;2.40;99.90
8662;DHT22;29684;47.722;9.388;2023-02-28T16:08:23;2.30;99.90
8662;DHT22;29684;47.722;9.388;2023-02-28T16:11:09;2.20;99.90
8662;DHT22;29684;47.722;9.388;2023-02-28T16:13:54;2.20;99.90
8662;DHT22;29684;47.722;9.388;2023-02-28T16:16:46;2.10;99.90
8662;DHT22;29684;47.722;9.388;2023-02-28T16:19:31;2.00;99.90
8662;DHT22;29684;47.722;9.388;2023-02-28T16:22:15;1.90;99.90
8662;DHT22;29684;47.722;9.388;2023-02-28T16:24:59;2.20;99.90
8662;DHT22;29684;47.722;9.388;2023-02-28T16:27:46;1.70;99.90
8662;DHT22;29684;47.722;9.388;2023-02-28T16:30:33;1.60;99.90
8662;DHT22;29684;47.722;9.388;2023-02-28T16:33:17;2.00;99.90
8662;DHT22;29684;47.722;9.388;2023-02-28T16:36:01;1.60;99.90
8662;DHT22;29684;47.722;9.388;2023-02-28T16:38:46;1.40;99.90
8662;DHT22;29684;47.722;9.388;2023-02-28T16:41:30;1.50;99.90
8662;DHT22;29684;47.722;9.388;2023-02-28T16:47:11;1.30;99.90
8662;DHT22;29684;47.722;9.388;2023-02-28T16:49:55;1.50;99.90
8662;DHT22;29684;47.722;9.388;2023-02-28T16:52:40;1.00;99.90
8662;DHT22;29684;47.722;9.388;2023-02-28T16:55:26;0.90;99.90
8662;DHT22;29684;47.722;9.388;2023-02-28T16:58:14;0.90;99.90
8662;DHT22;29684;47.722;9.388;2023-02-28T17:00:59;0.70;99.90
8662;DHT22;29684;47.722;9.388;2023-02-28T17:03:43;0.60;99.90
8662;DHT22;29684;47.722;9.388;2023-02-28T17:06:29;0.60;99.90
8662;DHT22;29684;47.722;9.388;2023-02-28T17:09:20;0.60;99.90
8662;DHT22;29684;47.722;9.388;2023-02-28T17:12:06;0.70;99.90
8662;DHT22;29684;47.722;9.388;2023-02-28T17:14:50;0.50;99.90
8662;DHT22;29684;47.722;9.388;2023-02-28T17:17:35;0.70;99.90
8662;DHT22;29684;47.722;9.388;2023-02-28T17:20:21;0.40;99.90
8662;DHT22;29684;47.722;9.388;2023-02-28T17:23:10;0.20;99.90
8662;DHT22;29684;47.722;9.388;2023-02-28T17:25:55;0.50;99.90
8662;DHT22;29684;47.722;9.388;2023-02-28T17:28:39;0.50;99.90
8662;DHT22;29684;47.722;9.388;2023-02-28T17:31:27;0.10;99.90
8662;DHT22;29684;47.722;9.388;2023-02-28T17:34:11;0.00;99.90
8662;DHT22;29684;47.722;9.388;2023-02-28T17:37:02;0.00;99.90
8662;DHT22;29684;47.722;9.388;2023-02-28T17:39:46;0.00;99.90
8662;DHT22;29684;47.722;9.388;2023-02-28T17:42:30;-0.10;99.90
8662;DHT22;29684;47.722;9.388;2023-02-28T17:45:15;0.10;99.90
8662;DHT22;29684;47.722;9.388;2023-02-28T17:47:59;0.00;99.90
8662;DHT22;29684;47.722;9.388;2023-02-28T17:50:43;0.20;99.90
8662;DHT22;29684;47.722;9.388;2023-02-28T17:53:28;0.10;99.90
8662;DHT22;29684;47.722;9.388;2023-02-28T17:56:14;0.10;99.90
8662;DHT22;29684;47.722;9.388;2023-02-28T17:58:59;0.00;99.90
8662;DHT22;29684;47.722;9.388;2023-02-28T18:01:43;-0.10;99.90
8662;DHT22;29684;47.722;9.388;2023-02-28T18:04:28;-0.10;99.90
8662;DHT22;29684;47.722;9.388;2023-02-28T18:07:13;-0.30;99.90
8662;DHT22;29684;47.722;9.388;2023-02-28T18:09:57;-0.30;99.90
8662;DHT22;29684;47.722;9.388;2023-02-28T18:12:41;-0.50;99.90
8662;DHT22;29684;47.722;9.388;2023-02-28T18:15:27;-0.40;99.90
8662;DHT22;29684;47.722;9.388;2023-02-28T18:18:11;-0.40;99.90
8662;DHT22;29684;47.722;9.388;2023-02-28T18:20:55;-0.50;99.90
8662;DHT22;29684;47.722;9.388;2023-02-28T18:23:41;-0.50;99.90
8662;DHT22;29684;47.722;9.388;2023-02-28T18:26:30;-0.60;99.90
8662;DHT22;29684;47.722;9.388;2023-02-28T18:29:18;-0.40;99.90
8662;DHT22;29684;47.722;9.388;2023-02-28T18:32:03;-0.20;99.90
8662;DHT22;29684;47.722;9.388;2023-02-28T18:34:49;-0.50;99.90
8662;DHT22;29684;47.722;9.388;2023-02-28T18:37:33;-0.50;99.90
8662;DHT22;29684;47.722;9.388;2023-02-28T18:40:18;-0.50;99.90
8662;DHT22;29684;47.722;9.388;2023-02-28T18:43:02;-0.60;99.90
8662;DHT22;29684;47.722;9.388;2023-02-28T18:45:47;-0.70;99.90
8662;DHT22;29684;47.722;9.388;2023-02-28T18:48:32;-0.90;99.90
8662;DHT22;29684;47.722;9.388;2023-02-28T18:51:20;-0.60;99.90
8662;DHT22;29684;47.722;9.388;2023-02-28T18:54:05;-0.50;99.90
8662;DHT22;29684;47.722;9.388;2023-02-28T18:56:49;-2.50;99.90
8662;DHT22;29684;47.722;9.388;2023-02-28T18:59:34;-0.80;99.90
8662;DHT22;29684;47.722;9.388;2023-02-28T19:02:19;-0.40;99.90
8662;DHT22;29684;47.722;9.388;2023-02-28T19:05:04;-0.70;99.90
8662;DHT22;29684;47.722;9.388;2023-02-28T19:07:48;-0.60;99.90
8662;DHT22;29684;47.722;9.388;2023-02-28T19:10:34;-0.50;99.90
8662;DHT22;29684;47.722;9.388;2023-02-28T19:13:21;-0.60;99.90
8662;DHT22;29684;47.722;9.388;2023-02-28T19:16:06;-0.70;99.90
8662;DHT22;29684;47.722;9.388;2023-02-28T19:18:51;-0.50;99.90
8662;DHT22;29684;47.722;9.388;2023-02-28T19:21:35;-0.60;99.90
8662;DHT22;29684;47.722;9.388;2023-02-28T19:24:19;-0.90;99.90
8662;DHT22;29684;47.722;9.388;2023-02-28T19:27:03;-0.60;99.90
8662;DHT22;29684;47.722;9.388;2023-02-28T19:29:49;-0.60;99.90
8662;DHT22;29684;47.722;9.388;2023-02-28T19:32:34;-0.60;99.90
8662;DHT22;29684;47.722;9.388;2023-02-28T19:35:18;-0.70;99.90
8662;DHT22;29684;47.722;9.388;2023-02-28T19:38:02;-0.60;99.90
8662;DHT22;29684;47.722;9.388;2023-02-28T19:40:46;-0.80;99.90
8662;DHT22;29684;47.722;9.388;2023-02-28T19:43:30;-0.90;99.90
8662;DHT22;29684;47.722;9.388;2023-02-28T19:46:14;-0.80;99.90
8662;DHT22;29684;47.722;9.388;2023-02-28T19:48:59;-0.90;99.90
8662;DHT22;29684;47.722;9.388;2023-02-28T19:51:43;-1.00;99.90
8662;DHT22;29684;47.722;9.388;2023-02-28T19:54:27;-1.00;99.90
8662;DHT22;29684;47.722;9.388;2023-02-28T19:57:12;-1.10;99.90
8662;DHT22;29684;47.722;9.388;2023-02-28T19:59:56;-1.20;99.90
8662;DHT22;29684;47.722;9.388;2023-02-28T20:02:41;-1.20;99.90
8662;DHT22;29684;47.722;9.388;2023-02-28T20:05:26;-1.30;99.90
8662;DHT22;29684;47.722;9.388;2023-02-28T20:08:11;-1.30;99.90
8662;DHT22;29684;47.722;9.388;2023-02-28T20:11:00;-1.40;99.90
8662;DHT22;29684;47.722;9.388;2023-02-28T20:13:45;-1.40;99.90
8662;DHT22;29684;47.722;9.388;2023-02-28T20:16:30;-1.50;99.90